L M Clayton Airport
KOLF : now visible

Airfield :











YOU CAN JOIN US ON...

 
LOGIN :

Register | Disclaimer

   EN    FR    IT 

 









Legend :    VFR   Marginal VFR   IFR   Intensive IFR   Very Intensive IFR
Visi :
Ceiling :
>= 8 km
>= 3000ft
5 to 8 km
1000 to 3000 ft
1500m to 5 km
500 to 1000 ft
800 to 1500m
200 to 500 ft
< 800m
< 200 ft
Symbols :   Thunderstorms  Fog  Heavy snow  Heavy precipitations  Wind > 20 kt







- Airport Elevation : 1986 ft


KOLF - L M Clayton

CURRENT METAR :
  • 191253Z AUTO 09004KT 10SM CLR 03/M01 A3014 RMK AO2 SLP220 T00331011

EXPIRED METARs :
  • 191153Z AUTO 09004KT 10SM CLR 02/M02 A3014 RMK AO2 SLP220 70008 T00171017 10050 20017 50002
  • 191053Z AUTO 06004KT 10SM CLR 02/M02 A3014 RMK AO2 SLP222 T00221017
  • 190953Z AUTO 04004KT 10SM CLR 02/M01 A3013 RMK AO2 SLP219 T00221011

TAF KOLF
Valid from the 19 at 12:00 until the 20 at 12:00 UTC


191130Z 1912/2012 VRB05KT P6SM BKN120
FM192300 09010KT P6SM SCT070
FM200300 VRB06KT P6SM BKN090
KZLC FIR / North America



MET'MAP, your aeronautical weather chart ! - Copyright ORBIFLY December 2007 - Disclaimer

ORBIFLY MET'MAP TEAM :

Programming & Development : Alexandra Zaïnal
Concept & Development : Baudouin d'Aumeries
Co-Development & Prog : Marc-Olivier Méhu
Technical & hardware support : Manuel Goepfert

Contact : metmap@orbifly.com




SOURCES & CREDITS :

   NOAA       Earth
Advisory